sensor_id;sensor_type;location;lat;lon;timestamp;P1;durP1;ratioP1;P2;durP2;ratioP2
5937;SDS011;2994;51.220;4.412;2022-08-01T00:00:21;7.53;;;6.17;;
5937;SDS011;2994;51.220;4.412;2022-08-01T00:02:47;9.53;;;7.60;;
5937;SDS011;2994;51.220;4.412;2022-08-01T00:05:12;8.80;;;8.00;;
5937;SDS011;2994;51.220;4.412;2022-08-01T00:07:38;9.33;;;8.33;;
5937;SDS011;2994;51.220;4.412;2022-08-01T00:10:04;10.00;;;7.27;;
5937;SDS011;2994;51.220;4.412;2022-08-01T00:12:31;8.50;;;7.60;;
5937;SDS011;2994;51.220;4.412;2022-08-01T00:14:56;9.73;;;8.60;;
5937;SDS011;2994;51.220;4.412;2022-08-01T00:17:22;10.73;;;8.70;;
5937;SDS011;2994;51.220;4.412;2022-08-01T00:19:47;11.60;;;8.20;;
5937;SDS011;2994;51.220;4.412;2022-08-01T00:22:13;8.43;;;7.50;;
5937;SDS011;2994;51.220;4.412;2022-08-01T00:24:38;11.67;;;7.50;;
5937;SDS011;2994;51.220;4.412;2022-08-01T00:27:03;9.73;;;6.70;;
5937;SDS011;2994;51.220;4.412;2022-08-01T00:29:29;9.60;;;8.27;;
5937;SDS011;2994;51.220;4.412;2022-08-01T00:31:54;8.50;;;7.27;;
5937;SDS011;2994;51.220;4.412;2022-08-01T00:34:20;10.80;;;7.60;;
5937;SDS011;2994;51.220;4.412;2022-08-01T00:36:45;8.43;;;7.53;;
5937;SDS011;2994;51.220;4.412;2022-08-01T00:39:11;9.20;;;7.20;;
5937;SDS011;2994;51.220;4.412;2022-08-01T00:41:37;10.80;;;7.60;;
5937;SDS011;2994;51.220;4.412;2022-08-01T00:44:03;9.27;;;7.47;;
5937;SDS011;2994;51.220;4.412;2022-08-01T00:46:30;10.47;;;8.97;;
5937;SDS011;2994;51.220;4.412;2022-08-01T00:48:56;11.03;;;7.53;;
5937;SDS011;2994;51.220;4.412;2022-08-01T00:51:22;10.37;;;7.60;;
5937;SDS011;2994;51.220;4.412;2022-08-01T00:53:48;9.83;;;7.90;;
5937;SDS011;2994;51.220;4.412;2022-08-01T00:56:15;11.40;;;8.70;;
5937;SDS011;2994;51.220;4.412;2022-08-01T00:58:41;10.93;;;7.83;;
5937;SDS011;2994;51.220;4.412;2022-08-01T01:01:07;12.50;;;8.30;;
5937;SDS011;2994;51.220;4.412;2022-08-01T01:03:33;9.37;;;7.77;;
5937;SDS011;2994;51.220;4.412;2022-08-01T01:08:40;12.57;;;10.47;;
5937;SDS011;2994;51.220;4.412;2022-08-01T01:11:16;20.57;;;12.40;;
5937;SDS011;2994;51.220;4.412;2022-08-01T01:13:54;17.13;;;12.87;;
5937;SDS011;2994;51.220;4.412;2022-08-01T01:16:25;17.93;;;12.37;;
5937;SDS011;2994;51.220;4.412;2022-08-01T01:18:55;19.70;;;13.70;;
5937;SDS011;2994;51.220;4.412;2022-08-01T01:29:40;17.63;;;15.73;;
5937;SDS011;2994;51.220;4.412;2022-08-01T01:34:40;21.43;;;16.37;;
5937;SDS011;2994;51.220;4.412;2022-08-01T01:37:09;20.30;;;16.50;;
5937;SDS011;2994;51.220;4.412;2022-08-01T01:39:40;21.67;;;18.00;;
5937;SDS011;2994;51.220;4.412;2022-08-01T01:42:07;18.20;;;15.90;;
5937;SDS011;2994;51.220;4.412;2022-08-01T01:44:33;19.40;;;16.67;;
5937;SDS011;2994;51.220;4.412;2022-08-01T01:46:59;21.00;;;17.00;;
5937;SDS011;2994;51.220;4.412;2022-08-01T01:49:27;23.23;;;16.70;;
5937;SDS011;2994;51.220;4.412;2022-08-01T01:51:54;17.50;;;14.57;;
5937;SDS011;2994;51.220;4.412;2022-08-01T01:54:22;23.00;;;16.90;;
5937;SDS011;2994;51.220;4.412;2022-08-01T01:56:55;14.90;;;13.30;;
5937;SDS011;2994;51.220;4.412;2022-08-01T01:59:24;16.30;;;13.37;;
5937;SDS011;2994;51.220;4.412;2022-08-01T02:01:52;15.70;;;12.70;;
5937;SDS011;2994;51.220;4.412;2022-08-01T02:04:20;17.10;;;12.40;;
5937;SDS011;2994;51.220;4.412;2022-08-01T02:06:47;13.40;;;11.43;;
5937;SDS011;2994;51.220;4.412;2022-08-01T02:09:17;12.07;;;10.87;;
5937;SDS011;2994;51.220;4.412;2022-08-01T02:11:45;13.67;;;11.53;;
5937;SDS011;2994;51.220;4.412;2022-08-01T02:14:13;10.67;;;9.67;;
5937;SDS011;2994;51.220;4.412;2022-08-01T02:16:41;14.53;;;9.77;;
5937;SDS011;2994;51.220;4.412;2022-08-01T02:19:10;11.83;;;9.47;;
5937;SDS011;2994;51.220;4.412;2022-08-01T02:21:40;8.97;;;7.57;;
5937;SDS011;2994;51.220;4.412;2022-08-01T02:27:17;8.30;;;7.03;;
5937;SDS011;2994;51.220;4.412;2022-08-01T02:29:58;8.03;;;6.67;;
5937;SDS011;2994;51.220;4.412;2022-08-01T02:32:47;11.00;;;9.13;;
5937;SDS011;2994;51.220;4.412;2022-08-01T02:35:18;9.93;;;8.30;;
5937;SDS011;2994;51.220;4.412;2022-08-01T02:37:48;9.77;;;7.90;;
5937;SDS011;2994;51.220;4.412;2022-08-01T02:40:13;8.53;;;7.20;;
5937;SDS011;2994;51.220;4.412;2022-08-01T02:42:43;7.40;;;6.67;;
5937;SDS011;2994;51.220;4.412;2022-08-01T02:45:12;7.57;;;6.20;;
5937;SDS011;2994;51.220;4.412;2022-08-01T02:47:38;7.00;;;5.90;;
5937;SDS011;2994;51.220;4.412;2022-08-01T02:50:06;8.87;;;7.40;;
5937;SDS011;2994;51.220;4.412;2022-08-01T02:52:34;7.83;;;6.53;;
5937;SDS011;2994;51.220;4.412;2022-08-01T02:55:01;7.47;;;6.33;;
5937;SDS011;2994;51.220;4.412;2022-08-01T02:57:27;7.80;;;7.10;;
5937;SDS011;2994;51.220;4.412;2022-08-01T02:59:55;7.47;;;6.77;;
5937;SDS011;2994;51.220;4.412;2022-08-01T03:02:22;9.37;;;6.17;;
5937;SDS011;2994;51.220;4.412;2022-08-01T03:04:48;7.67;;;6.60;;
5937;SDS011;2994;51.220;4.412;2022-08-01T03:07:17;6.47;;;5.83;;
5937;SDS011;2994;51.220;4.412;2022-08-01T03:09:45;6.47;;;5.57;;
5937;SDS011;2994;51.220;4.412;2022-08-01T03:12:14;4.50;;;4.10;;
5937;SDS011;2994;51.220;4.412;2022-08-01T03:14:44;6.37;;;4.20;;
5937;SDS011;2994;51.220;4.412;2022-08-01T03:17:11;5.13;;;4.03;;
5937;SDS011;2994;51.220;4.412;2022-08-01T03:19:38;5.00;;;4.50;;
5937;SDS011;2994;51.220;4.412;2022-08-01T03:22:08;4.93;;;3.97;;
5937;SDS011;2994;51.220;4.412;2022-08-01T03:24:39;6.13;;;4.17;;
5937;SDS011;2994;51.220;4.412;2022-08-01T03:27:06;4.33;;;3.50;;
5937;SDS011;2994;51.220;4.412;2022-08-01T03:29:32;4.17;;;3.37;;
5937;SDS011;2994;51.220;4.412;2022-08-01T03:32:00;4.90;;;3.70;;
5937;SDS011;2994;51.220;4.412;2022-08-01T03:34:27;5.40;;;4.40;;
5937;SDS011;2994;51.220;4.412;2022-08-01T03:37:12;6.03;;;4.13;;
5937;SDS011;2994;51.220;4.412;2022-08-01T03:42:54;3.83;;;3.13;;
5937;SDS011;2994;51.220;4.412;2022-08-01T03:45:31;3.77;;;3.10;;
5937;SDS011;2994;51.220;4.412;2022-08-01T03:48:02;3.80;;;3.50;;
5937;SDS011;2994;51.220;4.412;2022-08-01T03:50:31;3.33;;;2.80;;
5937;SDS011;2994;51.220;4.412;2022-08-01T03:52:59;3.63;;;2.53;;
5937;SDS011;2994;51.220;4.412;2022-08-01T03:55:26;3.60;;;3.00;;
5937;SDS011;2994;51.220;4.412;2022-08-01T03:57:52;3.93;;;2.87;;
5937;SDS011;2994;51.220;4.412;2022-08-01T04:00:19;2.90;;;2.67;;
5937;SDS011;2994;51.220;4.412;2022-08-01T04:02:45;7.40;;;2.53;;
5937;SDS011;2994;51.220;4.412;2022-08-01T04:05:12;4.07;;;2.70;;
5937;SDS011;2994;51.220;4.412;2022-08-01T04:07:38;3.07;;;2.53;;
5937;SDS011;2994;51.220;4.412;2022-08-01T04:10:05;3.47;;;2.70;;
5937;SDS011;2994;51.220;4.412;2022-08-01T04:12:31;3.33;;;3.03;;
5937;SDS011;2994;51.220;4.412;2022-08-01T04:14:57;3.80;;;3.10;;
5937;SDS011;2994;51.220;4.412;2022-08-01T04:17:23;5.73;;;3.63;;
5937;SDS011;2994;51.220;4.412;2022-08-01T04:19:49;4.07;;;3.40;;
5937;SDS011;2994;51.220;4.412;2022-08-01T04:22:14;5.93;;;4.13;;
5937;SDS011;2994;51.220;4.412;2022-08-01T04:24:41;4.00;;;3.60;;
5937;SDS011;2994;51.220;4.412;2022-08-01T04:27:09;4.03;;;3.63;;
5937;SDS011;2994;51.220;4.412;2022-08-01T04:29:39;4.50;;;3.60;;
5937;SDS011;2994;51.220;4.412;2022-08-01T04:32:06;5.20;;;4.70;;
5937;SDS011;2994;51.220;4.412;2022-08-01T04:34:34;4.53;;;4.13;;
5937;SDS011;2994;51.220;4.412;2022-08-01T04:37:02;3.57;;;3.27;;
5937;SDS011;2994;51.220;4.412;2022-08-01T04:39:31;5.00;;;3.63;;
5937;SDS011;2994;51.220;4.412;2022-08-01T04:42:01;5.50;;;3.20;;
5937;SDS011;2994;51.220;4.412;2022-08-01T04:44:29;3.80;;;3.30;;
5937;SDS011;2994;51.220;4.412;2022-08-01T04:46:57;4.23;;;3.80;;
5937;SDS011;2994;51.220;4.412;2022-08-01T04:49:24;4.60;;;4.20;;
5937;SDS011;2994;51.220;4.412;2022-08-01T04:51:53;4.30;;;3.73;;
5937;SDS011;2994;51.220;4.412;2022-08-01T04:54:25;5.73;;;4.30;;
5937;SDS011;2994;51.220;4.412;2022-08-01T04:56:55;5.60;;;4.20;;
5937;SDS011;2994;51.220;4.412;2022-08-01T04:59:24;5.17;;;4.37;;
5937;SDS011;2994;51.220;4.412;2022-08-01T05:02:08;7.00;;;4.00;;
5937;SDS011;2994;51.220;4.412;2022-08-01T05:04:39;8.13;;;4.13;;
5937;SDS011;2994;51.220;4.412;2022-08-01T05:07:06;6.53;;;4.23;;
5937;SDS011;2994;51.220;4.412;2022-08-01T05:09:32;5.10;;;3.50;;
5937;SDS011;2994;51.220;4.412;2022-08-01T05:12:01;3.33;;;2.70;;
5937;SDS011;2994;51.220;4.412;2022-08-01T05:14:28;4.30;;;2.63;;
5937;SDS011;2994;51.220;4.412;2022-08-01T05:16:56;3.03;;;2.60;;
5937;SDS011;2994;51.220;4.412;2022-08-01T05:19:28;4.40;;;2.40;;
5937;SDS011;2994;51.220;4.412;2022-08-01T05:21:56;3.03;;;2.17;;
5937;SDS011;2994;51.220;4.412;2022-08-01T05:24:22;2.93;;;2.50;;
5937;SDS011;2994;51.220;4.412;2022-08-01T05:26:48;2.93;;;2.63;;
5937;SDS011;2994;51.220;4.412;2022-08-01T05:29:14;3.13;;;2.40;;
5937;SDS011;2994;51.220;4.412;2022-08-01T05:31:39;4.60;;;3.30;;
5937;SDS011;2994;51.220;4.412;2022-08-01T05:34:05;3.60;;;2.73;;
5937;SDS011;2994;51.220;4.412;2022-08-01T05:36:30;3.50;;;2.70;;
5937;SDS011;2994;51.220;4.412;2022-08-01T05:38:56;4.07;;;2.97;;
5937;SDS011;2994;51.220;4.412;2022-08-01T05:41:21;3.00;;;2.70;;
5937;SDS011;2994;51.220;4.412;2022-08-01T05:43:47;4.10;;;3.00;;
5937;SDS011;2994;51.220;4.412;2022-08-01T05:46:12;3.60;;;2.93;;
5937;SDS011;2994;51.220;4.412;2022-08-01T05:48:38;2.90;;;2.60;;
5937;SDS011;2994;51.220;4.412;2022-08-01T05:51:03;2.97;;;2.50;;
5937;SDS011;2994;51.220;4.412;2022-08-01T05:53:29;3.77;;;3.03;;
5937;SDS011;2994;51.220;4.412;2022-08-01T05:55:54;3.87;;;3.47;;
5937;SDS011;2994;51.220;4.412;2022-08-01T05:58:20;3.00;;;2.50;;
5937;SDS011;2994;51.220;4.412;2022-08-01T06:00:46;4.83;;;2.90;;
5937;SDS011;2994;51.220;4.412;2022-08-01T06:03:11;5.50;;;3.07;;
5937;SDS011;2994;51.220;4.412;2022-08-01T06:05:37;2.10;;;1.90;;
5937;SDS011;2994;51.220;4.412;2022-08-01T06:08:03;3.80;;;2.20;;
5937;SDS011;2994;51.220;4.412;2022-08-01T06:10:28;2.20;;;2.00;;
5937;SDS011;2994;51.220;4.412;2022-08-01T06:12:54;2.07;;;1.87;;
5937;SDS011;2994;51.220;4.412;2022-08-01T06:15:19;2.10;;;1.80;;
5937;SDS011;2994;51.220;4.412;2022-08-01T06:17:45;2.40;;;2.20;;
5937;SDS011;2994;51.220;4.412;2022-08-01T06:20:10;2.50;;;2.07;;
5937;SDS011;2994;51.220;4.412;2022-08-01T06:22:36;3.00;;;2.13;;
5937;SDS011;2994;51.220;4.412;2022-08-01T06:25:02;1.60;;;1.50;;
5937;SDS011;2994;51.220;4.412;2022-08-01T06:27:28;3.33;;;1.80;;
5937;SDS011;2994;51.220;4.412;2022-08-01T06:29:54;2.03;;;1.70;;
5937;SDS011;2994;51.220;4.412;2022-08-01T06:32:22;2.77;;;1.50;;
5937;SDS011;2994;51.220;4.412;2022-08-01T06:34:49;2.43;;;1.93;;
5937;SDS011;2994;51.220;4.412;2022-08-01T06:37:15;1.93;;;1.33;;
5937;SDS011;2994;51.220;4.412;2022-08-01T06:39:40;1.87;;;1.20;;
5937;SDS011;2994;51.220;4.412;2022-08-01T06:42:06;1.80;;;1.23;;
5937;SDS011;2994;51.220;4.412;2022-08-01T06:44:32;2.27;;;1.23;;
5937;SDS011;2994;51.220;4.412;2022-08-01T06:46:57;2.20;;;2.00;;
5937;SDS011;2994;51.220;4.412;2022-08-01T06:49:23;1.70;;;1.60;;
5937;SDS011;2994;51.220;4.412;2022-08-01T06:51:49;3.03;;;1.47;;
5937;SDS011;2994;51.220;4.412;2022-08-01T06:54:14;2.43;;;1.30;;
5937;SDS011;2994;51.220;4.412;2022-08-01T06:56:41;2.73;;;1.60;;
5937;SDS011;2994;51.220;4.412;2022-08-01T06:59:06;2.80;;;1.30;;
5937;SDS011;2994;51.220;4.412;2022-08-01T07:01:32;2.73;;;1.37;;
5937;SDS011;2994;51.220;4.412;2022-08-01T07:03:57;1.20;;;0.80;;
5937;SDS011;2994;51.220;4.412;2022-08-01T07:06:23;1.80;;;1.20;;
5937;SDS011;2994;51.220;4.412;2022-08-01T07:08:50;2.27;;;1.30;;
5937;SDS011;2994;51.220;4.412;2022-08-01T07:11:16;2.97;;;1.00;;
5937;SDS011;2994;51.220;4.412;2022-08-01T07:13:42;2.37;;;1.50;;
5937;SDS011;2994;51.220;4.412;2022-08-01T07:16:07;2.50;;;1.80;;
5937;SDS011;2994;51.220;4.412;2022-08-01T07:18:32;2.23;;;1.50;;
5937;SDS011;2994;51.220;4.412;2022-08-01T07:20:58;2.43;;;1.63;;
5937;SDS011;2994;51.220;4.412;2022-08-01T07:23:23;4.57;;;2.90;;
5937;SDS011;2994;51.220;4.412;2022-08-01T07:25:49;4.10;;;1.90;;
5937;SDS011;2994;51.220;4.412;2022-08-01T07:28:15;2.30;;;2.10;;
5937;SDS011;2994;51.220;4.412;2022-08-01T07:30:41;3.67;;;2.40;;
5937;SDS011;2994;51.220;4.412;2022-08-01T07:33:07;3.43;;;2.23;;
5937;SDS011;2994;51.220;4.412;2022-08-01T07:35:33;5.67;;;2.70;;
5937;SDS011;2994;51.220;4.412;2022-08-01T07:37:59;2.00;;;1.80;;
5937;SDS011;2994;51.220;4.412;2022-08-01T07:40:24;2.50;;;2.20;;
5937;SDS011;2994;51.220;4.412;2022-08-01T07:42:49;2.37;;;2.03;;
5937;SDS011;2994;51.220;4.412;2022-08-01T07:45:15;2.80;;;2.57;;
5937;SDS011;2994;51.220;4.412;2022-08-01T07:47:41;3.63;;;2.40;;
5937;SDS011;2994;51.220;4.412;2022-08-01T07:50:06;4.70;;;1.87;;
5937;SDS011;2994;51.220;4.412;2022-08-01T07:52:33;1.70;;;1.60;;
5937;SDS011;2994;51.220;4.412;2022-08-01T07:54:58;2.10;;;1.90;;
5937;SDS011;2994;51.220;4.412;2022-08-01T07:57:24;4.10;;;1.90;;
5937;SDS011;2994;51.220;4.412;2022-08-01T07:59:50;1.63;;;1.53;;
5937;SDS011;2994;51.220;4.412;2022-08-01T08:02:16;2.27;;;1.60;;
5937;SDS011;2994;51.220;4.412;2022-08-01T08:04:41;2.17;;;1.47;;
5937;SDS011;2994;51.220;4.412;2022-08-01T08:07:07;2.10;;;1.40;;
5937;SDS011;2994;51.220;4.412;2022-08-01T08:09:32;1.60;;;1.50;;
5937;SDS011;2994;51.220;4.412;2022-08-01T08:11:58;2.07;;;1.87;;
5937;SDS011;2994;51.220;4.412;2022-08-01T08:14:23;2.20;;;1.50;;
5937;SDS011;2994;51.220;4.412;2022-08-01T08:16:49;3.80;;;2.00;;
5937;SDS011;2994;51.220;4.412;2022-08-01T08:19:15;3.00;;;1.90;;
5937;SDS011;2994;51.220;4.412;2022-08-01T08:21:40;2.70;;;1.97;;
5937;SDS011;2994;51.220;4.412;2022-08-01T08:24:07;2.83;;;1.77;;
5937;SDS011;2994;51.220;4.412;2022-08-01T08:26:48;2.20;;;2.00;;
5937;SDS011;2994;51.220;4.412;2022-08-01T08:29:16;3.53;;;2.77;;
5937;SDS011;2994;51.220;4.412;2022-08-01T08:31:41;3.83;;;2.57;;
5937;SDS011;2994;51.220;4.412;2022-08-01T08:34:07;3.70;;;2.60;;
5937;SDS011;2994;51.220;4.412;2022-08-01T08:36:33;3.80;;;2.60;;
5937;SDS011;2994;51.220;4.412;2022-08-01T08:38:58;3.00;;;2.80;;
5937;SDS011;2994;51.220;4.412;2022-08-01T08:41:31;2.90;;;2.63;;
5937;SDS011;2994;51.220;4.412;2022-08-01T08:43:57;6.20;;;2.60;;
5937;SDS011;2994;51.220;4.412;2022-08-01T08:46:26;5.00;;;2.50;;
5937;SDS011;2994;51.220;4.412;2022-08-01T08:48:53;3.10;;;2.03;;
5937;SDS011;2994;51.220;4.412;2022-08-01T08:51:20;3.70;;;2.37;;
5937;SDS011;2994;51.220;4.412;2022-08-01T08:53:47;2.67;;;2.03;;
5937;SDS011;2994;51.220;4.412;2022-08-01T08:56:13;4.07;;;2.53;;
5937;SDS011;2994;51.220;4.412;2022-08-01T08:58:43;8.10;;;2.63;;
5937;SDS011;2994;51.220;4.412;2022-08-01T09:01:10;3.87;;;2.40;;
5937;SDS011;2994;51.220;4.412;2022-08-01T09:03:37;2.90;;;2.70;;
5937;SDS011;2994;51.220;4.412;2022-08-01T09:06:04;2.80;;;2.50;;
5937;SDS011;2994;51.220;4.412;2022-08-01T09:08:29;2.50;;;2.30;;
5937;SDS011;2994;51.220;4.412;2022-08-01T09:10:55;2.80;;;2.20;;
5937;SDS011;2994;51.220;4.412;2022-08-01T09:13:20;2.77;;;2.10;;
5937;SDS011;2994;51.220;4.412;2022-08-01T09:15:47;3.33;;;2.47;;
5937;SDS011;2994;51.220;4.412;2022-08-01T09:21:07;3.10;;;2.30;;
5937;SDS011;2994;51.220;4.412;2022-08-01T09:23:39;4.70;;;2.57;;
5937;SDS011;2994;51.220;4.412;2022-08-01T09:26:13;3.30;;;2.70;;
5937;SDS011;2994;51.220;4.412;2022-08-01T09:28:40;4.00;;;2.53;;
5937;SDS011;2994;51.220;4.412;2022-08-01T09:31:12;4.00;;;2.90;;
5937;SDS011;2994;51.220;4.412;2022-08-01T09:36:14;2.63;;;2.13;;
5937;SDS011;2994;51.220;4.412;2022-08-01T09:38:40;8.50;;;3.80;;
5937;SDS011;2994;51.220;4.412;2022-08-01T09:41:05;2.60;;;1.93;;
5937;SDS011;2994;51.220;4.412;2022-08-01T09:43:32;2.60;;;2.40;;
5937;SDS011;2994;51.220;4.412;2022-08-01T09:45:58;3.23;;;2.30;;
5937;SDS011;2994;51.220;4.412;2022-08-01T09:48:25;3.20;;;2.40;;
5937;SDS011;2994;51.220;4.412;2022-08-01T09:50:52;3.00;;;2.70;;
5937;SDS011;2994;51.220;4.412;2022-08-01T09:53:17;5.80;;;2.40;;
5937;SDS011;2994;51.220;4.412;2022-08-01T09:55:44;4.40;;;2.77;;
5937;SDS011;2994;51.220;4.412;2022-08-01T09:58:10;6.17;;;3.17;;
5937;SDS011;2994;51.220;4.412;2022-08-01T10:00:37;2.50;;;2.27;;
5937;SDS011;2994;51.220;4.412;2022-08-01T10:03:22;4.27;;;3.30;;
5937;SDS011;2994;51.220;4.412;2022-08-01T10:05:49;2.67;;;2.47;;
5937;SDS011;2994;51.220;4.412;2022-08-01T10:08:16;3.30;;;2.60;;
5937;SDS011;2994;51.220;4.412;2022-08-01T10:10:43;3.40;;;2.47;;
5937;SDS011;2994;51.220;4.412;2022-08-01T10:13:31;3.13;;;2.63;;
5937;SDS011;2994;51.220;4.412;2022-08-01T10:15:56;2.60;;;2.40;;
5937;SDS011;2994;51.220;4.412;2022-08-01T10:18:22;3.20;;;2.50;;
5937;SDS011;2994;51.220;4.412;2022-08-01T10:20:48;5.03;;;3.17;;
5937;SDS011;2994;51.220;4.412;2022-08-01T10:23:13;2.90;;;2.70;;
5937;SDS011;2994;51.220;4.412;2022-08-01T10:25:40;3.67;;;2.90;;
5937;SDS011;2994;51.220;4.412;2022-08-01T10:28:15;4.17;;;3.67;;
5937;SDS011;2994;51.220;4.412;2022-08-01T10:30:42;3.20;;;2.90;;
5937;SDS011;2994;51.220;4.412;2022-08-01T10:33:08;4.10;;;3.10;;
5937;SDS011;2994;51.220;4.412;2022-08-01T10:35:35;4.13;;;3.00;;
5937;SDS011;2994;51.220;4.412;2022-08-01T10:38:01;3.47;;;2.90;;
5937;SDS011;2994;51.220;4.412;2022-08-01T10:40:28;4.07;;;2.70;;
5937;SDS011;2994;51.220;4.412;2022-08-01T10:42:54;3.23;;;3.00;;
5937;SDS011;2994;51.220;4.412;2022-08-01T10:45:21;5.50;;;3.13;;
5937;SDS011;2994;51.220;4.412;2022-08-01T10:48:03;4.00;;;3.57;;
5937;SDS011;2994;51.220;4.412;2022-08-01T10:50:39;2.83;;;2.33;;
5937;SDS011;2994;51.220;4.412;2022-08-01T10:58:11;5.23;;;3.00;;
5937;SDS011;2994;51.220;4.412;2022-08-01T11:00:36;4.90;;;3.03;;
5937;SDS011;2994;51.220;4.412;2022-08-01T11:03:02;3.23;;;2.70;;
5937;SDS011;2994;51.220;4.412;2022-08-01T11:05:32;3.17;;;2.43;;
5937;SDS011;2994;51.220;4.412;2022-08-01T11:08:07;5.33;;;3.90;;
5937;SDS011;2994;51.220;4.412;2022-08-01T11:10:45;3.10;;;2.50;;
5937;SDS011;2994;51.220;4.412;2022-08-01T11:13:12;4.43;;;2.90;;
5937;SDS011;2994;51.220;4.412;2022-08-01T11:15:37;3.97;;;3.57;;
5937;SDS011;2994;51.220;4.412;2022-08-01T11:21:02;4.90;;;2.90;;
5937;SDS011;2994;51.220;4.412;2022-08-01T11:23:28;4.20;;;3.53;;
5937;SDS011;2994;51.220;4.412;2022-08-01T11:28:21;4.03;;;3.67;;
5937;SDS011;2994;51.220;4.412;2022-08-01T11:31:24;5.40;;;3.93;;
5937;SDS011;2994;51.220;4.412;2022-08-01T11:49:57;5.70;;;5.03;;
5937;SDS011;2994;51.220;4.412;2022-08-01T11:57:06;4.77;;;4.30;;
5937;SDS011;2994;51.220;4.412;2022-08-01T11:59:40;3.43;;;3.13;;
5937;SDS011;2994;51.220;4.412;2022-08-01T12:02:21;4.40;;;3.00;;
5937;SDS011;2994;51.220;4.412;2022-08-01T12:04:57;5.77;;;3.63;;
5937;SDS011;2994;51.220;4.412;2022-08-01T12:07:23;3.07;;;2.87;;
5937;SDS011;2994;51.220;4.412;2022-08-01T12:10:01;3.80;;;2.87;;
5937;SDS011;2994;51.220;4.412;2022-08-01T12:12:32;3.13;;;2.50;;
5937;SDS011;2994;51.220;4.412;2022-08-01T12:15:00;3.83;;;2.47;;
5937;SDS011;2994;51.220;4.412;2022-08-01T12:17:32;4.53;;;2.60;;
5937;SDS011;2994;51.220;4.412;2022-08-01T12:20:21;3.93;;;2.30;;
5937;SDS011;2994;51.220;4.412;2022-08-01T12:22:52;5.57;;;2.40;;
5937;SDS011;2994;51.220;4.412;2022-08-01T12:25:19;3.03;;;1.90;;
5937;SDS011;2994;51.220;4.412;2022-08-01T12:27:45;2.67;;;2.00;;
5937;SDS011;2994;51.220;4.412;2022-08-01T12:30:12;2.23;;;2.03;;
5937;SDS011;2994;51.220;4.412;2022-08-01T12:32:40;4.40;;;2.07;;
5937;SDS011;2994;51.220;4.412;2022-08-01T12:37:52;2.97;;;1.80;;
5937;SDS011;2994;51.220;4.412;2022-08-01T12:40:20;3.10;;;2.13;;
5937;SDS011;2994;51.220;4.412;2022-08-01T12:42:48;2.07;;;1.80;;
5937;SDS011;2994;51.220;4.412;2022-08-01T12:45:16;3.10;;;2.23;;
5937;SDS011;2994;51.220;4.412;2022-08-01T12:47:44;2.53;;;1.80;;
5937;SDS011;2994;51.220;4.412;2022-08-01T12:50:12;2.17;;;1.70;;
5937;SDS011;2994;51.220;4.412;2022-08-01T12:52:40;2.50;;;2.30;;
5937;SDS011;2994;51.220;4.412;2022-08-01T12:55:07;2.30;;;2.00;;
5937;SDS011;2994;51.220;4.412;2022-08-01T12:57:37;3.03;;;2.03;;
5937;SDS011;2994;51.220;4.412;2022-08-01T13:00:08;2.03;;;1.83;;
5937;SDS011;2994;51.220;4.412;2022-08-01T13:02:46;2.27;;;1.80;;
5937;SDS011;2994;51.220;4.412;2022-08-01T13:05:12;2.13;;;1.93;;
5937;SDS011;2994;51.220;4.412;2022-08-01T13:07:43;4.57;;;2.27;;
5937;SDS011;2994;51.220;4.412;2022-08-01T13:10:14;2.70;;;1.90;;
5937;SDS011;2994;51.220;4.412;2022-08-01T13:12:53;2.20;;;2.00;;
5937;SDS011;2994;51.220;4.412;2022-08-01T13:15:21;6.57;;;2.30;;
5937;SDS011;2994;51.220;4.412;2022-08-01T13:17:49;2.27;;;1.70;;
5937;SDS011;2994;51.220;4.412;2022-08-01T13:20:32;2.40;;;2.07;;
5937;SDS011;2994;51.220;4.412;2022-08-01T13:23:11;2.67;;;1.90;;
5937;SDS011;2994;51.220;4.412;2022-08-01T13:25:50;2.87;;;2.20;;
5937;SDS011;2994;51.220;4.412;2022-08-01T13:28:19;2.67;;;1.80;;
5937;SDS011;2994;51.220;4.412;2022-08-01T13:33:18;2.33;;;1.70;;
5937;SDS011;2994;51.220;4.412;2022-08-01T13:35:43;2.70;;;2.03;;
5937;SDS011;2994;51.220;4.412;2022-08-01T13:38:09;2.20;;;2.00;;
5937;SDS011;2994;51.220;4.412;2022-08-01T13:40:34;2.67;;;2.10;;
5937;SDS011;2994;51.220;4.412;2022-08-01T13:43:00;4.00;;;2.27;;
5937;SDS011;2994;51.220;4.412;2022-08-01T13:45:25;6.70;;;2.67;;
5937;SDS011;2994;51.220;4.412;2022-08-01T13:47:51;2.40;;;2.07;;
5937;SDS011;2994;51.220;4.412;2022-08-01T13:50:16;2.17;;;1.83;;
5937;SDS011;2994;51.220;4.412;2022-08-01T13:52:41;1.90;;;1.80;;
5937;SDS011;2994;51.220;4.412;2022-08-01T13:55:07;4.23;;;2.27;;
5937;SDS011;2994;51.220;4.412;2022-08-01T13:57:33;5.90;;;1.90;;
5937;SDS011;2994;51.220;4.412;2022-08-01T13:59:58;2.40;;;1.60;;
5937;SDS011;2994;51.220;4.412;2022-08-01T14:02:25;3.40;;;2.13;;
5937;SDS011;2994;51.220;4.412;2022-08-01T14:04:52;3.77;;;2.13;;
5937;SDS011;2994;51.220;4.412;2022-08-01T14:07:19;4.27;;;2.50;;
5937;SDS011;2994;51.220;4.412;2022-08-01T14:09:45;3.37;;;1.97;;
5937;SDS011;2994;51.220;4.412;2022-08-01T14:12:10;2.73;;;1.83;;
5937;SDS011;2994;51.220;4.412;2022-08-01T14:14:35;2.40;;;1.80;;
5937;SDS011;2994;51.220;4.412;2022-08-01T14:17:01;2.70;;;2.13;;
5937;SDS011;2994;51.220;4.412;2022-08-01T14:19:27;4.50;;;1.70;;
5937;SDS011;2994;51.220;4.412;2022-08-01T14:21:53;2.23;;;1.70;;
5937;SDS011;2994;51.220;4.412;2022-08-01T14:24:18;2.03;;;1.83;;
5937;SDS011;2994;51.220;4.412;2022-08-01T14:26:44;3.10;;;1.90;;
5937;SDS011;2994;51.220;4.412;2022-08-01T14:29:09;2.00;;;1.90;;
5937;SDS011;2994;51.220;4.412;2022-08-01T14:31:34;2.50;;;1.97;;
5937;SDS011;2994;51.220;4.412;2022-08-01T14:34:00;2.80;;;2.10;;
5937;SDS011;2994;51.220;4.412;2022-08-01T14:36:26;1.70;;;1.60;;
5937;SDS011;2994;51.220;4.412;2022-08-01T14:38:51;2.80;;;1.67;;
5937;SDS011;2994;51.220;4.412;2022-08-01T14:41:17;2.50;;;2.30;;
5937;SDS011;2994;51.220;4.412;2022-08-01T14:43:42;2.57;;;2.20;;
5937;SDS011;2994;51.220;4.412;2022-08-01T14:46:08;2.30;;;2.10;;
5937;SDS011;2994;51.220;4.412;2022-08-01T14:48:34;3.63;;;2.00;;
5937;SDS011;2994;51.220;4.412;2022-08-01T14:51:00;2.50;;;1.70;;
5937;SDS011;2994;51.220;4.412;2022-08-01T14:53:29;2.50;;;1.83;;
5937;SDS011;2994;51.220;4.412;2022-08-01T14:55:54;2.30;;;1.60;;
5937;SDS011;2994;51.220;4.412;2022-08-01T14:58:20;3.93;;;2.07;;
5937;SDS011;2994;51.220;4.412;2022-08-01T15:00:45;3.77;;;2.47;;
5937;SDS011;2994;51.220;4.412;2022-08-01T15:03:11;3.27;;;2.20;;
5937;SDS011;2994;51.220;4.412;2022-08-01T15:05:37;2.27;;;1.80;;
5937;SDS011;2994;51.220;4.412;2022-08-01T15:08:03;3.03;;;1.90;;
5937;SDS011;2994;51.220;4.412;2022-08-01T15:10:30;2.20;;;1.93;;
5937;SDS011;2994;51.220;4.412;2022-08-01T15:12:57;4.50;;;2.00;;
5937;SDS011;2994;51.220;4.412;2022-08-01T15:15:24;3.60;;;1.80;;
5937;SDS011;2994;51.220;4.412;2022-08-01T15:17:50;1.47;;;1.33;;
5937;SDS011;2994;51.220;4.412;2022-08-01T15:20:17;1.70;;;1.60;;
5937;SDS011;2994;51.220;4.412;2022-08-01T15:22:43;2.17;;;1.70;;
5937;SDS011;2994;51.220;4.412;2022-08-01T15:25:08;2.43;;;2.10;;
5937;SDS011;2994;51.220;4.412;2022-08-01T15:27:34;2.10;;;1.67;;
5937;SDS011;2994;51.220;4.412;2022-08-01T15:30:00;3.90;;;1.83;;
5937;SDS011;2994;51.220;4.412;2022-08-01T15:32:25;3.83;;;1.70;;
5937;SDS011;2994;51.220;4.412;2022-08-01T15:34:51;2.20;;;1.77;;
5937;SDS011;2994;51.220;4.412;2022-08-01T15:37:17;1.93;;;1.60;;
5937;SDS011;2994;51.220;4.412;2022-08-01T15:39:42;1.67;;;1.57;;
5937;SDS011;2994;51.220;4.412;2022-08-01T15:42:09;3.67;;;2.13;;
5937;SDS011;2994;51.220;4.412;2022-08-01T15:44:38;1.70;;;1.60;;
5937;SDS011;2994;51.220;4.412;2022-08-01T15:47:04;2.43;;;1.97;;
5937;SDS011;2994;51.220;4.412;2022-08-01T15:49:30;2.30;;;2.10;;
5937;SDS011;2994;51.220;4.412;2022-08-01T15:51:56;2.20;;;2.00;;
5937;SDS011;2994;51.220;4.412;2022-08-01T15:54:22;2.90;;;2.20;;
5937;SDS011;2994;51.220;4.412;2022-08-01T15:56:49;4.63;;;2.60;;
5937;SDS011;2994;51.220;4.412;2022-08-01T15:59:14;2.90;;;2.70;;
5937;SDS011;2994;51.220;4.412;2022-08-01T16:01:40;3.00;;;2.30;;
5937;SDS011;2994;51.220;4.412;2022-08-01T16:04:05;3.37;;;2.90;;
5937;SDS011;2994;51.220;4.412;2022-08-01T16:06:32;2.37;;;2.17;;
5937;SDS011;2994;51.220;4.412;2022-08-01T16:08:58;3.03;;;2.73;;
5937;SDS011;2994;51.220;4.412;2022-08-01T16:11:24;2.60;;;2.40;;
5937;SDS011;2994;51.220;4.412;2022-08-01T16:13:52;2.90;;;2.60;;
5937;SDS011;2994;51.220;4.412;2022-08-01T16:16:18;2.67;;;2.47;;